Time;durP1;ratioP1;P1;durP2;ratioP2;P2;SDS_P1;SDS_P2;PMS_P1;PMS_P2;Temp;Humidity;BMP_temperature;BMP_pressure;BME280_temperature;BME280_humidity;BME280_pressure;Samples;Min_cycle;Max_cycle;Signal;HPM_P1;HPM_P2
2021/06/27 00:00:28;;;;;;;;;;;25.40;43.80;;;;;;1576293;74;713;-78
2021/06/27 00:02:30;;;;;;;;;;;25.40;43.70;;;;;;1574958;74;1145;-75
2021/06/27 00:04:32;;;;;;;;;;;25.40;43.60;;;;;;1575128;74;643;-75
2021/06/27 00:06:33;;;;;;;;;;;25.40;43.60;;;;;;1571508;74;748;-78
2021/06/27 00:08:35;;;;;;;;;;;25.50;43.50;;;;;;1574979;74;1927;-79
2021/06/27 00:10:39;;;;;;;;;;;25.50;43.50;;;;;;1573411;74;702;-78
2021/06/27 00:12:41;;;;;;;;;;;25.40;43.40;;;;;;1569328;74;806;-77
2021/06/27 00:14:42;;;;;;;;;;;25.40;43.40;;;;;;1564807;74;709;-76
2021/06/27 00:16:44;;;;;;;;;;;25.40;43.40;;;;;;1568849;74;763;-77
2021/06/27 00:18:46;;;;;;;;;;;25.40;43.40;;;;;;1571368;74;667;-74
2021/06/27 00:20:48;;;;;;;;;;;25.40;43.30;;;;;;1571753;74;1141;-72
2021/06/27 00:22:50;;;;;;;;;;;25.50;43.30;;;;;;1568872;74;686;-73
2021/06/27 00:24:52;;;;;;;;;;;25.40;43.50;;;;;;1569526;74;718;-75
2021/06/27 00:26:54;;;;;;;;;;;25.40;43.50;;;;;;1577521;74;731;-76
2021/06/27 00:28:57;;;;;;;;;;;25.40;43.50;;;;;;1570424;74;1934;-75
2021/06/27 00:31:00;;;;;;;;;;;25.40;43.40;;;;;;1569624;74;1278;-74
2021/06/27 00:33:02;;;;;;;;;;;25.50;43.30;;;;;;1568520;74;717;-74
2021/06/27 00:35:05;;;;;;;;;;;25.40;43.30;;;;;;1571723;74;792;-74
2021/06/27 00:37:09;;;;;;;;;;;25.40;43.30;;;;;;1567511;74;1023;-75
2021/06/27 00:39:10;;;;;;;;;;;25.40;43.30;;;;;;1567014;74;693;-75
2021/06/27 00:41:12;;;;;;;;;;;25.40;43.20;;;;;;1571131;74;1110;-76
2021/06/27 00:43:14;;;;;;;;;;;25.50;43.30;;;;;;1569107;74;747;-75
2021/06/27 00:45:16;;;;;;;;;;;25.50;43.10;;;;;;1569491;74;713;-73
2021/06/27 00:47:28;;;;;;;;;;;25.50;43.10;;;;;;1572122;74;689;-74
2021/06/27 00:49:30;;;;;;;;;;;25.50;43.20;;;;;;1567388;74;1936;-75
2021/06/27 00:51:32;;;;;;;;;;;25.40;43.20;;;;;;1569701;74;1251;-75
2021/06/27 00:53:34;;;;;;;;;;;25.50;43.20;;;;;;1568906;74;714;-75
2021/06/27 00:55:36;;;;;;;;;;;25.50;43.20;;;;;;1570623;74;721;-77
2021/06/27 00:57:38;;;;;;;;;;;25.50;43.20;;;;;;1569709;74;731;-75
2021/06/27 00:59:40;;;;;;;;;;;25.40;43.10;;;;;;1569780;74;742;-75
2021/06/27 01:01:42;;;;;;;;;;;25.50;43.10;;;;;;1566633;74;1153;-77
2021/06/27 01:03:44;;;;;;;;;;;25.50;43.10;;;;;;1565700;74;705;-77
2021/06/27 01:05:46;;;;;;;;;;;25.50;43.00;;;;;;1569788;74;700;-75
2021/06/27 01:07:48;;;;;;;;;;;25.40;43.10;;;;;;1569898;74;739;-75
2021/06/27 01:09:49;;;;;;;;;;;25.50;43.10;;;;;;1574416;74;1937;-73
2021/06/27 01:11:51;;;;;;;;;;;25.40;43.10;;;;;;1567907;74;1141;-73
2021/06/27 01:13:53;;;;;;;;;;;25.40;43.10;;;;;;1569629;74;761;-75
2021/06/27 01:15:55;;;;;;;;;;;25.50;43.00;;;;;;1569617;74;719;-75
2021/06/27 01:17:57;;;;;;;;;;;25.50;43.10;;;;;;1571064;74;667;-76
2021/06/27 01:19:59;;;;;;;;;;;25.50;43.00;;;;;;1567232;74;743;-76
2021/06/27 01:22:01;;;;;;;;;;;25.40;42.90;;;;;;1571981;74;1285;-77
2021/06/27 01:24:03;;;;;;;;;;;25.50;42.90;;;;;;1568703;74;714;-75
2021/06/27 01:26:05;;;;;;;;;;;25.40;42.90;;;;;;1570384;74;715;-76
2021/06/27 01:28:07;;;;;;;;;;;25.40;42.90;;;;;;1570857;74;749;-77
2021/06/27 01:30:10;;;;;;;;;;;25.40;42.90;;;;;;1569559;74;1934;-74
2021/06/27 01:32:13;;;;;;;;;;;25.40;42.80;;;;;;1570038;74;1160;-73
2021/06/27 01:34:14;;;;;;;;;;;25.40;42.80;;;;;;1569668;74;648;-75
2021/06/27 01:36:16;;;;;;;;;;;25.40;42.80;;;;;;1571830;74;713;-75
2021/06/27 01:38:21;;;;;;;;;;;25.40;42.90;;;;;;1571534;74;656;-75
2021/06/27 01:40:23;;;;;;;;;;;25.40;42.80;;;;;;1570270;74;1130;-76
2021/06/27 01:42:25;;;;;;;;;;;25.40;42.90;;;;;;1573020;74;1136;-74
2021/06/27 01:44:27;;;;;;;;;;;25.40;42.70;;;;;;1571026;74;643;-73
2021/06/27 01:46:28;;;;;;;;;;;25.30;42.70;;;;;;1569710;74;715;-75
2021/06/27 01:48:31;;;;;;;;;;;25.40;42.80;;;;;;1568804;74;699;-74
2021/06/27 01:50:33;;;;;;;;;;;25.40;42.70;;;;;;1569496;74;1930;-74
2021/06/27 01:52:35;;;;;;;;;;;25.40;42.80;;;;;;1569650;74;1040;-77
2021/06/27 01:54:40;;;;;;;;;;;25.40;42.80;;;;;;1570822;74;734;-77
2021/06/27 01:56:41;;;;;;;;;;;25.30;42.80;;;;;;1571280;74;739;-76
2021/06/27 01:58:53;;;;;;;;;;;25.40;42.80;;;;;;1569040;74;737;-76
2021/06/27 02:00:54;;;;;;;;;;;25.30;42.90;;;;;;1569705;74;1130;-76
2021/06/27 02:02:56;;;;;;;;;;;25.40;42.80;;;;;;1569555;74;765;-75
2021/06/27 02:04:58;;;;;;;;;;;25.40;42.70;;;;;;1570457;74;685;-74
2021/06/27 02:07:00;;;;;;;;;;;25.30;42.70;;;;;;1568699;74;724;-74
2021/06/27 02:09:04;;;;;;;;;;;25.40;42.80;;;;;;1569950;74;1936;-73
2021/06/27 02:11:06;;;;;;;;;;;25.30;42.70;;;;;;1572237;74;1134;-73
2021/06/27 02:13:08;;;;;;;;;;;25.40;42.70;;;;;;1566871;74;789;-74
2021/06/27 02:15:10;;;;;;;;;;;25.40;42.70;;;;;;1569785;74;605;-74
2021/06/27 02:17:12;;;;;;;;;;;25.30;42.60;;;;;;1574012;74;737;-75
2021/06/27 02:19:14;;;;;;;;;;;25.40;42.70;;;;;;1569900;74;751;-74
2021/06/27 02:21:17;;;;;;;;;;;25.40;42.50;;;;;;1574495;74;1158;-74
2021/06/27 02:23:19;;;;;;;;;;;25.30;42.50;;;;;;1573246;74;718;-74
2021/06/27 02:25:21;;;;;;;;;;;25.30;42.50;;;;;;1573240;74;719;-73
2021/06/27 02:27:22;;;;;;;;;;;25.30;42.50;;;;;;1569953;74;719;-73
2021/06/27 02:29:24;;;;;;;;;;;25.40;42.40;;;;;;1569815;74;1937;-73
2021/06/27 02:31:28;;;;;;;;;;;25.40;42.50;;;;;;1577224;74;1185;-74
2021/06/27 02:33:30;;;;;;;;;;;25.30;42.60;;;;;;1565313;74;990;-73
2021/06/27 02:35:32;;;;;;;;;;;25.30;42.50;;;;;;1571450;74;724;-73
2021/06/27 02:37:34;;;;;;;;;;;25.30;42.60;;;;;;1576329;74;725;-72
2021/06/27 02:39:35;;;;;;;;;;;25.30;42.60;;;;;;1569623;74;789;-70
2021/06/27 02:41:37;;;;;;;;;;;25.40;42.60;;;;;;1570053;74;1126;-71
2021/06/27 02:43:39;;;;;;;;;;;25.30;42.50;;;;;;1574219;74;721;-73
2021/06/27 02:45:41;;;;;;;;;;;25.30;42.50;;;;;;1569824;74;740;-70
2021/06/27 02:47:43;;;;;;;;;;;25.30;42.50;;;;;;1571028;74;728;-76
2021/06/27 02:49:45;;;;;;;;;;;25.30;42.40;;;;;;1570092;74;1952;-74
2021/06/27 02:51:47;;;;;;;;;;;25.20;42.30;;;;;;1569709;74;1133;-71
2021/06/27 02:53:49;;;;;;;;;;;25.30;42.30;;;;;;1569326;74;747;-72
2021/06/27 02:56:07;;;;;;;;;;;25.30;42.20;;;;;;1578053;74;738;-72
2021/06/27 02:57:54;;;;;;;;;;;25.30;42.20;;;;;;1572130;74;1085;-70
2021/06/27 02:59:56;;;;;;;;;;;25.30;42.30;;;;;;1569912;74;712;-72
2021/06/27 03:01:58;;;;;;;;;;;25.20;42.30;;;;;;1569678;74;1090;-72
2021/06/27 03:04:00;;;;;;;;;;;25.20;42.50;;;;;;1552161;74;715;-71
2021/06/27 03:06:02;;;;;;;;;;;25.30;42.30;;;;;;1566856;74;655;-71
2021/06/27 03:08:04;;;;;;;;;;;25.30;42.20;;;;;;1567601;74;624;-73
2021/06/27 03:10:06;;;;;;;;;;;25.30;42.20;;;;;;1570671;74;1947;-71
2021/06/27 03:12:11;;;;;;;;;;;25.30;42.20;;;;;;1570880;74;1115;-71
2021/06/27 03:14:12;;;;;;;;;;;25.40;42.20;;;;;;1569555;74;1217;-73
2021/06/27 03:16:14;;;;;;;;;;;25.20;42.10;;;;;;1562998;74;749;-71
2021/06/27 03:18:15;;;;;;;;;;;25.40;42.10;;;;;;1569635;74;696;-71
2021/06/27 03:20:17;;;;;;;;;;;25.30;42.10;;;;;;1576251;74;747;-72
2021/06/27 03:22:19;;;;;;;;;;;25.30;42.00;;;;;;1568607;74;1147;-72
2021/06/27 03:24:21;;;;;;;;;;;25.30;42.00;;;;;;1569322;74;760;-71
2021/06/27 03:26:23;;;;;;;;;;;25.30;41.90;;;;;;1569865;74;694;-71
2021/06/27 03:28:26;;;;;;;;;;;25.30;42.00;;;;;;1569766;74;706;-72
2021/06/27 03:30:28;;;;;;;;;;;25.30;41.70;;;;;;1564929;74;1918;-73
2021/06/27 03:32:30;;;;;;;;;;;25.20;41.80;;;;;;1566426;74;1124;-72
2021/06/27 03:34:32;;;;;;;;;;;25.20;41.80;;;;;;1574521;74;709;-73
2021/06/27 03:36:34;;;;;;;;;;;25.20;41.70;;;;;;1573588;74;701;-74
2021/06/27 03:38:45;;;;;;;;;;;25.30;41.70;;;;;;1569786;74;671;-73
2021/06/27 03:40:41;;;;;;;;;;;25.30;41.60;;;;;;1568042;74;1071;-74
2021/06/27 03:42:43;;;;;;;;;;;25.20;41.60;;;;;;1558830;74;816;-72
2021/06/27 03:44:45;;;;;;;;;;;25.30;41.70;;;;;;1569722;74;575;-73
2021/06/27 03:46:47;;;;;;;;;;;25.30;41.60;;;;;;1565517;74;693;-73
2021/06/27 03:48:49;;;;;;;;;;;25.30;41.60;;;;;;1569784;74;709;-74
2021/06/27 03:50:51;;;;;;;;;;;25.20;41.60;;;;;;1567323;74;1946;-74
2021/06/27 03:52:53;;;;;;;;;;;25.30;41.60;;;;;;1565749;74;694;-75
2021/06/27 03:54:54;;;;;;;;;;;25.30;41.70;;;;;;1574971;74;742;-74
2021/06/27 03:56:56;;;;;;;;;;;25.30;41.50;;;;;;1574517;74;725;-73
2021/06/27 03:58:58;;;;;;;;;;;25.20;41.60;;;;;;1564600;74;705;-73
2021/06/27 04:01:00;;;;;;;;;;;25.30;41.50;;;;;;1567040;74;1124;-70
2021/06/27 04:03:02;;;;;;;;;;;25.20;41.50;;;;;;1571449;74;741;-74
2021/06/27 04:05:04;;;;;;;;;;;25.20;42.20;;;;;;1573844;74;731;-73
2021/06/27 04:07:06;;;;;;;;;;;25.30;41.70;;;;;;1496279;77;707;-75
2021/06/27 04:09:08;;;;;;;;;;;25.30;41.50;;;;;;1551614;75;693;-75
2021/06/27 04:11:10;;;;;;;;;;;25.30;41.60;;;;;;1558421;75;1979;-75
2021/06/27 04:13:11;;;;;;;;;;;25.30;41.50;;;;;;1559916;75;700;-75
2021/06/27 04:15:13;;;;;;;;;;;25.30;41.50;;;;;;1561360;75;787;-74
2021/06/27 04:17:18;;;;;;;;;;;25.30;41.60;;;;;;1560207;75;730;-74
2021/06/27 04:19:19;;;;;;;;;;;25.30;41.70;;;;;;1559588;75;1171;-75
2021/06/27 04:21:21;;;;;;;;;;;25.20;41.70;;;;;;1561418;75;1177;-74
2021/06/27 04:23:23;;;;;;;;;;;25.20;41.80;;;;;;1559980;75;691;-74
2021/06/27 04:25:25;;;;;;;;;;;25.20;41.80;;;;;;1556022;75;732;-74
2021/06/27 04:27:26;;;;;;;;;;;25.20;41.80;;;;;;1557453;75;748;-74
2021/06/27 04:29:28;;;;;;;;;;;25.20;41.80;;;;;;1557267;75;696;-74
2021/06/27 04:31:30;;;;;;;;;;;25.20;41.90;;;;;;1558828;75;1931;-74
2021/06/27 04:33:32;;;;;;;;;;;25.10;42.00;;;;;;1559982;75;665;-74
2021/06/27 04:35:35;;;;;;;;;;;25.10;42.10;;;;;;1557039;75;717;-74
2021/06/27 04:37:37;;;;;;;;;;;25.20;42.10;;;;;;1560362;75;720;-74
2021/06/27 04:39:39;;;;;;;;;;;25.20;42.20;;;;;;1560077;75;755;-74
2021/06/27 04:41:42;;;;;;;;;;;25.10;42.20;;;;;;1559881;75;1154;-72
2021/06/27 04:43:44;;;;;;;;;;;25.20;42.30;;;;;;1561749;75;705;-75
2021/06/27 04:45:46;;;;;;;;;;;25.10;42.30;;;;;;1549885;75;702;-74
2021/06/27 04:47:48;;;;;;;;;;;25.20;42.30;;;;;;1552539;75;709;-74
2021/06/27 04:49:50;;;;;;;;;;;25.20;42.40;;;;;;1559843;75;778;-75
2021/06/27 04:51:52;;;;;;;;;;;25.20;42.40;;;;;;1559700;75;1947;-75
2021/06/27 04:53:53;;;;;;;;;;;25.20;42.50;;;;;;1559705;75;751;-77
2021/06/27 04:56:00;;;;;;;;;;;25.10;42.60;;;;;;1560775;75;735;-75
2021/06/27 04:57:59;;;;;;;;;;;25.20;42.50;;;;;;1557518;75;987;-76
2021/06/27 05:00:01;;;;;;;;;;;25.20;42.70;;;;;;1563890;75;664;-74
2021/06/27 05:02:03;;;;;;;;;;;25.20;42.80;;;;;;1565953;75;1129;-74
2021/06/27 05:04:05;;;;;;;;;;;25.20;42.80;;;;;;1560847;75;649;-73
2021/06/27 05:06:07;;;;;;;;;;;25.20;42.80;;;;;;1560383;75;710;-77
2021/06/27 05:08:09;;;;;;;;;;;25.30;42.90;;;;;;1565173;75;743;-71
2021/06/27 05:10:11;;;;;;;;;;;25.30;43.50;;;;;;1560008;75;1911;-73
2021/06/27 05:12:13;;;;;;;;;;;25.30;43.20;;;;;;1561009;73;220357;-66
2021/06/27 05:14:15;;;;;;;;;;;25.20;43.10;;;;;;1598179;73;823;-67
2021/06/27 05:16:17;;;;;;;;;;;25.20;43.10;;;;;;1598809;73;766;-66
2021/06/27 05:18:20;;;;;;;;;;;25.20;43.30;;;;;;1598589;73;848;-66
2021/06/27 05:20:22;;;;;;;;;;;25.20;43.40;;;;;;1597888;73;733;-68
2021/06/27 05:22:24;;;;;;;;;;;25.10;43.60;;;;;;1581500;74;1177;-68
2021/06/27 05:24:26;;;;;;;;;;;25.30;43.70;;;;;;1571903;74;778;-68
2021/06/27 05:26:28;;;;;;;;;;;25.20;43.60;;;;;;1570496;74;789;-67
2021/06/27 05:28:30;;;;;;;;;;;25.30;43.60;;;;;;1572023;74;836;-69
2021/06/27 05:30:33;;;;;;;;;;;25.20;43.60;;;;;;1576339;75;1920;-68
2021/06/27 05:32:35;;;;;;;;;;;25.30;43.60;;;;;;1588258;73;1171;-69
2021/06/27 05:34:37;;;;;;;;;;;25.30;43.60;;;;;;1589333;74;687;-67
2021/06/27 05:36:39;;;;;;;;;;;25.30;43.60;;;;;;1586468;73;728;-71
2021/06/27 05:38:41;;;;;;;;;;;25.30;43.70;;;;;;1589683;74;859;-69
2021/06/27 05:40:43;;;;;;;;;;;25.30;43.70;;;;;;1589810;74;809;-69
2021/06/27 05:42:46;;;;;;;;;;;25.30;43.60;;;;;;1587423;73;1123;-70
2021/06/27 05:44:48;;;;;;;;;;;25.30;43.60;;;;;;1588192;74;958;-69
2021/06/27 05:46:49;;;;;;;;;;;25.40;43.70;;;;;;1588144;74;789;-69
2021/06/27 05:48:51;;;;;;;;;;;25.40;43.70;;;;;;1587466;74;809;-70
2021/06/27 05:50:53;;;;;;;;;;;25.40;43.90;;;;;;1588782;74;1936;-70
2021/06/27 05:52:55;;;;;;;;;;;25.40;43.90;;;;;;1588262;73;1026;-69
2021/06/27 05:54:57;;;;;;;;;;;25.50;43.90;;;;;;1589347;74;773;-68
2021/06/27 05:56:59;;;;;;;;;;;25.40;43.90;;;;;;1589635;74;789;-69
2021/06/27 05:59:01;;;;;;;;;;;25.40;44.10;;;;;;1589718;74;705;-69
2021/06/27 06:01:03;;;;;;;;;;;25.50;44.20;;;;;;1588243;73;1285;-67
2021/06/27 06:03:04;;;;;;;;;;;25.50;44.40;;;;;;1588667;74;682;-68
2021/06/27 06:05:07;;;;;;;;;;;25.40;44.20;;;;;;1589725;74;682;-69
2021/06/27 06:07:09;;;;;;;;;;;25.40;44.50;;;;;;1589122;74;654;-69
2021/06/27 06:09:10;;;;;;;;;;;25.40;44.50;;;;;;1588761;74;747;-71
2021/06/27 06:11:13;;;;;;;;;;;25.50;44.20;;;;;;1587317;73;1914;-69
2021/06/27 06:13:15;;;;;;;;;;;25.50;44.40;;;;;;1589129;74;785;-69
2021/06/27 06:15:17;;;;;;;;;;;25.40;44.20;;;;;;1589546;74;887;-70
2021/06/27 06:17:18;;;;;;;;;;;25.50;44.40;;;;;;1587179;73;705;-69
2021/06/27 06:19:20;;;;;;;;;;;25.50;44.30;;;;;;1586816;74;737;-69
2021/06/27 06:21:22;;;;;;;;;;;25.50;44.20;;;;;;1589271;73;1139;-69
2021/06/27 06:23:24;;;;;;;;;;;25.40;44.50;;;;;;1587842;74;850;-70
2021/06/27 06:25:26;;;;;;;;;;;25.30;44.50;;;;;;1587980;74;794;-68
2021/06/27 06:27:28;;;;;;;;;;;25.40;44.40;;;;;;1586694;75;732;-70
2021/06/27 06:29:30;;;;;;;;;;;25.40;44.40;;;;;;1586161;73;799;-72
2021/06/27 06:31:32;;;;;;;;;;;25.50;44.30;;;;;;1589518;74;1928;-69
2021/06/27 06:33:33;;;;;;;;;;;25.50;44.60;;;;;;1587604;74;727;-70
2021/06/27 06:35:35;;;;;;;;;;;25.50;44.50;;;;;;1589799;74;791;-70
2021/06/27 06:37:37;;;;;;;;;;;25.50;44.80;;;;;;1584968;74;785;-69
2021/06/27 06:39:39;;;;;;;;;;;25.50;44.50;;;;;;1589692;73;724;-70
2021/06/27 06:41:41;;;;;;;;;;;25.50;44.50;;;;;;1588402;75;1129;-68
2021/06/27 06:43:43;;;;;;;;;;;25.50;44.50;;;;;;1588726;74;776;-69
2021/06/27 06:45:45;;;;;;;;;;;25.50;44.80;;;;;;1589220;74;782;-70
2021/06/27 06:47:47;;;;;;;;;;;25.50;44.90;;;;;;1589389;73;720;-67
2021/06/27 06:49:48;;;;;;;;;;;25.40;45.00;;;;;;1588334;73;807;-68
2021/06/27 06:51:50;;;;;;;;;;;25.40;45.20;;;;;;1588136;74;1929;-66
2021/06/27 06:53:52;;;;;;;;;;;25.40;45.10;;;;;;1590393;74;815;-69
2021/06/27 06:55:57;;;;;;;;;;;25.30;45.30;;;;;;1587184;75;692;-70
2021/06/27 06:57:58;;;;;;;;;;;25.50;45.10;;;;;;1583232;73;1717;-69
2021/06/27 07:00:00;;;;;;;;;;;25.40;44.70;;;;;;1586412;75;816;-69
2021/06/27 07:02:02;;;;;;;;;;;25.40;45.20;;;;;;1585225;74;1100;-72
2021/06/27 07:04:03;;;;;;;;;;;25.40;45.10;;;;;;1586603;75;736;-68
2021/06/27 07:06:05;;;;;;;;;;;25.40;44.90;;;;;;1579080;73;743;-68
2021/06/27 07:08:07;;;;;;;;;;;25.30;45.00;;;;;;1586113;74;940;-67
2021/06/27 07:10:10;;;;;;;;;;;25.30;45.00;;;;;;1589243;74;723;-68
2021/06/27 07:12:11;;;;;;;;;;;25.10;45.70;;;;;;1585923;74;1928;-67
2021/06/27 07:14:13;;;;;;;;;;;25.20;45.90;;;;;;1571631;73;782;-67
2021/06/27 07:16:15;;;;;;;;;;;25.20;45.60;;;;;;1571444;73;735;-67
2021/06/27 07:18:17;;;;;;;;;;;25.00;45.90;;;;;;1582738;74;755;-67
2021/06/27 07:20:19;;;;;;;;;;;25.00;46.00;;;;;;1570937;74;676;-69
2021/06/27 07:22:21;;;;;;;;;;;25.00;46.10;;;;;;1572208;74;1152;-66
2021/06/27 07:24:23;;;;;;;;;;;25.00;45.70;;;;;;1575059;73;747;-65
2021/06/27 07:26:25;;;;;;;;;;;24.80;45.90;;;;;;1584903;74;773;-66
2021/06/27 07:28:27;;;;;;;;;;;24.80;45.90;;;;;;1576236;73;773;-66
2021/06/27 07:30:29;;;;;;;;;;;24.70;46.30;;;;;;1571779;73;689;-66
2021/06/27 07:32:30;;;;;;;;;;;24.80;46.30;;;;;;1581882;74;1924;-66
2021/06/27 07:34:32;;;;;;;;;;;24.80;46.30;;;;;;1580231;74;791;-67
2021/06/27 07:36:34;;;;;;;;;;;24.80;45.80;;;;;;1574308;73;781;-66
2021/06/27 07:38:36;;;;;;;;;;;24.80;45.70;;;;;;1582325;74;781;-68
2021/06/27 07:40:39;;;;;;;;;;;25.00;45.60;;;;;;1583736;74;782;-69
2021/06/27 07:42:41;;;;;;;;;;;25.00;45.50;;;;;;1572059;74;1118;-66
2021/06/27 07:44:43;;;;;;;;;;;25.10;45.40;;;;;;1580727;73;733;-66
2021/06/27 07:46:45;;;;;;;;;;;25.20;45.20;;;;;;1583642;74;715;-66
2021/06/27 07:48:47;;;;;;;;;;;25.30;45.00;;;;;;1580922;74;819;-66
2021/06/27 07:50:49;;;;;;;;;;;25.40;44.90;;;;;;1579130;73;738;-67
2021/06/27 07:52:51;;;;;;;;;;;25.30;44.50;;;;;;1566213;74;1943;-66
2021/06/27 07:54:53;;;;;;;;;;;25.50;44.50;;;;;;1576616;73;711;-64
2021/06/27 07:56:55;;;;;;;;;;;25.50;44.50;;;;;;1581435;74;801;-64
2021/06/27 07:58:56;;;;;;;;;;;25.40;43.60;;;;;;1572759;74;719;-63
2021/06/27 08:00:58;;;;;;;;;;;25.30;43.50;;;;;;1580580;75;788;-68
2021/06/27 08:03:01;;;;;;;;;;;25.30;43.90;;;;;;1573452;73;1152;-64
2021/06/27 08:05:03;;;;;;;;;;;25.40;43.80;;;;;;1572636;74;725;-65
2021/06/27 08:07:05;;;;;;;;;;;25.50;43.60;;;;;;1575412;74;716;-64
2021/06/27 08:09:07;;;;;;;;;;;25.60;43.40;;;;;;1575431;75;701;-63
2021/06/27 08:11:09;;;;;;;;;;;25.60;43.20;;;;;;1575331;73;1092;-65
2021/06/27 08:13:11;;;;;;;;;;;25.50;43.50;;;;;;1578835;73;1918;-64
2021/06/27 08:15:22;;;;;;;;;;;25.50;43.60;;;;;;1580925;74;722;-65
2021/06/27 08:17:17;;;;;;;;;;;25.50;43.50;;;;;;1576487;74;1408;-67
2021/06/27 08:19:19;;;;;;;;;;;25.50;43.90;;;;;;1577974;74;749;-68
2021/06/27 08:21:20;;;;;;;;;;;25.60;43.80;;;;;;1575348;74;1183;-66
2021/06/27 08:23:22;;;;;;;;;;;25.50;43.70;;;;;;1576395;73;772;-66
2021/06/27 08:25:24;;;;;;;;;;;25.70;43.60;;;;;;1574497;74;722;-66
2021/06/27 08:27:26;;;;;;;;;;;25.70;43.50;;;;;;1579792;74;770;-66
2021/06/27 08:29:28;;;;;;;;;;;25.70;43.70;;;;;;1579553;74;798;-66
2021/06/27 08:31:30;;;;;;;;;;;25.60;43.30;;;;;;1578476;73;1945;-66
2021/06/27 08:33:32;;;;;;;;;;;25.50;43.60;;;;;;1580747;74;692;-66
2021/06/27 08:35:34;;;;;;;;;;;25.60;43.60;;;;;;1580555;74;814;-68
2021/06/27 08:37:36;;;;;;;;;;;25.50;43.30;;;;;;1581296;74;750;-69
2021/06/27 08:39:38;;;;;;;;;;;25.70;43.10;;;;;;1577420;73;727;-68
2021/06/27 08:41:39;;;;;;;;;;;25.60;42.10;;;;;;1578963;73;1161;-66
2021/06/27 08:43:42;;;;;;;;;;;25.60;42.20;;;;;;1573343;74;836;-66
2021/06/27 08:45:49;;;;;;;;;;;25.50;41.80;;;;;;1575421;74;808;-66
2021/06/27 08:47:52;;;;;;;;;;;25.60;42.20;;;;;;1572859;73;920;-67
2021/06/27 08:49:54;;;;;;;;;;;25.60;41.30;;;;;;1575351;73;649;-69
2021/06/27 08:51:56;;;;;;;;;;;25.50;42.10;;;;;;1579095;74;1931;-68
2021/06/27 08:53:58;;;;;;;;;;;25.50;42.90;;;;;;1579151;74;702;-66
2021/06/27 08:56:07;;;;;;;;;;;25.50;42.50;;;;;;1575647;74;721;-64
2021/06/27 08:58:09;;;;;;;;;;;25.50;42.20;;;;;;1571141;74;616;-69
2021/06/27 09:00:12;;;;;;;;;;;25.40;42.20;;;;;;1576260;73;779;-67
2021/06/27 09:02:14;;;;;;;;;;;25.40;41.80;;;;;;1576869;75;1152;-67
2021/06/27 09:04:18;;;;;;;;;;;25.40;42.30;;;;;;1574508;75;822;-67
2021/06/27 09:06:24;;;;;;;;;;;25.40;42.20;;;;;;1584483;74;1555;-66
2021/06/27 09:08:26;;;;;;;;;;;25.40;41.50;;;;;;1573808;73;1730;-67
2021/06/27 09:10:28;;;;;;;;;;;25.40;42.10;;;;;;1575667;74;721;-68
2021/06/27 09:12:47;;;;;;;;;;;25.40;41.80;;;;;;1574350;74;1958;-65
2021/06/27 09:14:49;;;;;;;;;;;25.40;42.10;;;;;;1577862;74;814;-66
2021/06/27 09:16:52;;;;;;;;;;;25.40;41.80;;;;;;1571235;74;689;-68
2021/06/27 09:18:56;;;;;;;;;;;25.40;42.30;;;;;;1578437;73;1863;-71
2021/06/27 09:20:58;;;;;;;;;;;25.40;42.50;;;;;;1571304;74;1841;-68
2021/06/27 09:22:59;;;;;;;;;;;25.50;43.00;;;;;;1573266;74;1126;-65
2021/06/27 09:25:21;;;;;;;;;;;25.50;43.10;;;;;;1577161;74;748;-70
2021/06/27 09:27:24;;;;;;;;;;;25.50;43.00;;;;;;1571748;73;728;-67
2021/06/27 09:29:26;;;;;;;;;;;25.60;42.60;;;;;;1577344;74;697;-67
2021/06/27 09:31:41;;;;;;;;;;;25.60;42.00;;;;;;1576003;74;1192;-69
2021/06/27 09:33:43;;;;;;;;;;;25.60;42.10;;;;;;1580173;74;763;-63
2021/06/27 09:36:00;;;;;;;;;;;25.50;41.40;;;;;;1580322;74;817;-67
2021/06/27 09:38:22;;;;;;;;;;;25.50;41.80;;;;;;1581263;73;647;-69
2021/06/27 09:40:24;;;;;;;;;;;25.40;41.50;;;;;;1583240;73;843;-67
2021/06/27 09:42:26;;;;;;;;;;;25.40;41.40;;;;;;1549834;75;1172;-71
2021/06/27 09:44:28;;;;;;;;;;;25.40;41.90;;;;;;1581617;74;681;-68
2021/06/27 09:46:37;;;;;;;;;;;25.40;41.60;;;;;;1579026;73;831;-69
2021/06/27 09:48:41;;;;;;;;;;;25.40;41.50;;;;;;1575476;74;805;-67
2021/06/27 09:50:43;;;;;;;;;;;25.40;41.30;;;;;;1570683;74;1758;-67
2021/06/27 09:52:45;;;;;;;;;;;25.40;41.50;;;;;;1577323;75;1937;-64
2021/06/27 09:54:47;;;;;;;;;;;25.50;41.50;;;;;;1578997;73;745;-66
2021/06/27 09:56:49;;;;;;;;;;;25.40;41.50;;;;;;1554656;75;1155;-65
2021/06/27 09:59:03;;;;;;;;;;;25.40;41.50;;;;;;1557646;75;767;-66
2021/06/27 10:01:07;;;;;;;;;;;25.40;41.80;;;;;;1558004;75;1094;-65
2021/06/27 10:03:10;;;;;;;;;;;25.40;41.70;;;;;;1577813;73;1983;-68
2021/06/27 10:05:24;;;;;;;;;;;25.40;41.90;;;;;;1576415;73;749;-66
2021/06/27 10:07:38;;;;;;;;;;;25.50;41.80;;;;;;1575923;74;747;-66
2021/06/27 10:09:41;;;;;;;;;;;25.60;40.90;;;;;;1575450;74;788;-67
2021/06/27 10:12:02;;;;;;;;;;;25.50;41.20;;;;;;1579334;74;1129;-67
2021/06/27 10:14:08;;;;;;;;;;;25.40;41.10;;;;;;1568885;73;792;-67
2021/06/27 10:16:16;;;;;;;;;;;25.50;41.20;;;;;;1580352;74;714;-67
2021/06/27 10:18:18;;;;;;;;;;;25.40;40.90;;;;;;1578303;74;771;-67
2021/06/27 10:20:20;;;;;;;;;;;25.40;41.20;;;;;;1583760;75;670;-68
2021/06/27 10:22:25;;;;;;;;;;;25.50;41.80;;;;;;1571733;73;1112;-70
2021/06/27 10:24:25;;;;;;;;;;;25.40;41.50;;;;;;1577445;73;1690;-67
2021/06/27 10:26:28;;;;;;;;;;;25.40;41.40;;;;;;1578436;74;859;-66
2021/06/27 10:28:29;;;;;;;;;;;25.40;41.60;;;;;;1577611;74;795;-67
2021/06/27 10:30:31;;;;;;;;;;;25.50;41.50;;;;;;1547457;75;670;-72
2021/06/27 10:32:35;;;;;;;;;;;25.50;41.30;;;;;;1553725;75;1947;-67
2021/06/27 10:34:37;;;;;;;;;;;25.40;40.70;;;;;;1578352;74;1122;-69
2021/06/27 10:36:40;;;;;;;;;;;25.40;41.10;;;;;;1571560;74;752;-70
2021/06/27 10:38:44;;;;;;;;;;;25.40;40.70;;;;;;1581723;74;1378;-67
2021/06/27 10:40:52;;;;;;;;;;;25.30;41.10;;;;;;1583469;73;1991;-67
2021/06/27 10:42:56;;;;;;;;;;;25.30;40.50;;;;;;1582629;73;1186;-67
2021/06/27 10:44:59;;;;;;;;;;;25.30;40.40;;;;;;1579934;74;764;-69
2021/06/27 10:47:01;;;;;;;;;;;25.30;40.70;;;;;;1584140;73;761;-67
2021/06/27 10:49:03;;;;;;;;;;;25.30;40.80;;;;;;1583832;73;753;-66
2021/06/27 10:51:06;;;;;;;;;;;25.20;40.70;;;;;;1579230;74;1141;-69
2021/06/27 10:53:08;;;;;;;;;;;25.20;41.00;;;;;;1579402;75;1903;-62
2021/06/27 10:55:19;;;;;;;;;;;25.30;40.50;;;;;;1579007;73;808;-67
2021/06/27 10:57:22;;;;;;;;;;;25.40;40.50;;;;;;1578332;74;771;-62
2021/06/27 10:59:40;;;;;;;;;;;25.20;40.20;;;;;;1576762;74;744;-65
2021/06/27 11:01:44;;;;;;;;;;;25.40;40.70;;;;;;1577269;73;1156;-66
2021/06/27 11:03:46;;;;;;;;;;;25.40;40.90;;;;;;1575354;74;1051;-66
2021/06/27 11:05:48;;;;;;;;;;;25.40;40.40;;;;;;1580879;75;706;-66
2021/06/27 11:07:50;;;;;;;;;;;25.30;40.30;;;;;;1577893;74;797;-66
2021/06/27 11:09:51;;;;;;;;;;;25.20;40.60;;;;;;1576441;74;778;-62
2021/06/27 11:11:54;;;;;;;;;;;25.30;40.80;;;;;;1572890;73;2139;-72
2021/06/27 11:14:20;;;;;;;;;;;25.30;41.30;;;;;;1508247;77;1930;-71
2021/06/27 11:16:22;;;;;;;;;;;25.40;41.10;;;;;;1507939;77;718;-71
2021/06/27 11:18:31;;;;;;;;;;;25.30;40.60;;;;;;1509120;77;758;-73
2021/06/27 11:20:37;;;;;;;;;;;25.20;40.70;;;;;;1511259;77;802;-72
2021/06/27 11:22:50;;;;;;;;;;;25.30;40.70;;;;;;1507839;77;1213;-72
2021/06/27 11:24:53;;;;;;;;;;;25.40;41.00;;;;;;1507584;76;1040;-72
2021/06/27 11:26:55;;;;;;;;;;;25.40;41.40;;;;;;1512542;77;780;-73
2021/06/27 11:28:57;;;;;;;;;;;25.40;41.20;;;;;;1514184;77;716;-73
2021/06/27 11:31:17;;;;;;;;;;;25.40;41.10;;;;;;1509334;77;714;-70
2021/06/27 11:33:21;;;;;;;;;;;25.40;41.00;;;;;;1512905;77;1938;-75
2021/06/27 11:35:32;;;;;;;;;;;25.30;41.40;;;;;;1511294;77;766;-71
2021/06/27 11:37:36;;;;;;;;;;;25.30;40.90;;;;;;1516259;77;777;-73
2021/06/27 11:39:52;;;;;;;;;;;25.20;41.30;;;;;;1504567;77;1172;-72
2021/06/27 11:41:53;;;;;;;;;;;25.30;41.20;;;;;;1510781;77;1156;-75
2021/06/27 11:43:58;;;;;;;;;;;25.20;41.10;;;;;;1517781;77;674;-73
2021/06/27 11:46:00;;;;;;;;;;;25.30;41.10;;;;;;1505669;77;893;-72
2021/06/27 11:48:04;;;;;;;;;;;25.20;40.30;;;;;;1511888;77;708;-72
2021/06/27 11:50:17;;;;;;;;;;;25.30;40.90;;;;;;1511695;77;1163;-72
2021/06/27 11:52:19;;;;;;;;;;;25.30;40.90;;;;;;1515831;77;1124;-73
2021/06/27 11:54:23;;;;;;;;;;;25.30;41.00;;;;;;1514929;77;1939;-72
2021/06/27 11:56:25;;;;;;;;;;;25.30;40.90;;;;;;1513373;77;1014;-72
2021/06/27 11:58:27;;;;;;;;;;;25.30;40.70;;;;;;1511341;77;782;-72
2021/06/27 12:00:30;;;;;;;;;;;25.30;40.60;;;;;;1513795;77;714;-73
2021/06/27 12:02:32;;;;;;;;;;;25.30;40.00;;;;;;1515012;77;1140;-71
2021/06/27 12:04:41;;;;;;;;;;;25.30;40.60;;;;;;1510974;77;716;-71
2021/06/27 12:06:43;;;;;;;;;;;25.30;40.70;;;;;;1513566;77;745;-73
2021/06/27 12:08:45;;;;;;;;;;;25.30;40.00;;;;;;1516450;77;772;-73
2021/06/27 12:10:48;;;;;;;;;;;25.20;40.30;;;;;;1514289;77;678;-72
2021/06/27 12:12:57;;;;;;;;;;;25.20;40.70;;;;;;1511298;77;1944;-72